createdAt,value
2023-01-02T00:02:14.276Z,100.00
2023-01-02T00:04:43.975Z,100.00
2023-01-02T00:07:13.099Z,100.00
2023-01-02T00:09:42.368Z,100.00
2023-01-02T00:12:11.827Z,100.00
2023-01-02T00:14:41.214Z,100.00
2023-01-02T00:17:11.571Z,100.00
2023-01-02T00:19:40.670Z,100.00
2023-01-02T00:22:09.844Z,100.00
2023-01-02T00:24:39.016Z,100.00
2023-01-02T00:27:08.610Z,100.00
2023-01-02T00:29:37.968Z,100.00
2023-01-02T00:32:07.683Z,100.00
2023-01-02T00:34:38.438Z,100.00
2023-01-02T00:37:07.780Z,100.00
2023-01-02T00:39:36.957Z,100.00
2023-01-02T00:42:06.471Z,100.00
2023-01-02T00:44:35.868Z,100.00
2023-01-02T00:47:05.196Z,100.00
2023-01-02T00:49:34.349Z,100.00
2023-01-02T00:52:05.541Z,100.00
2023-01-02T00:54:34.649Z,100.00
2023-01-02T00:57:03.858Z,100.00
2023-01-02T00:59:33.095Z,100.00
2023-01-02T01:02:02.628Z,100.00
2023-01-02T01:04:34.291Z,100.00
2023-01-02T01:07:05.568Z,100.00
2023-01-02T01:09:36.002Z,100.00
2023-01-02T01:12:05.543Z,100.00
2023-01-02T01:14:34.643Z,100.00
2023-01-02T01:17:03.748Z,100.00
2023-01-02T01:19:33.204Z,100.00
2023-01-02T01:22:02.721Z,100.00
2023-01-02T01:24:33.181Z,100.00
2023-01-02T01:27:02.361Z,100.00
2023-01-02T01:29:31.549Z,100.00
2023-01-02T01:32:00.668Z,100.00
2023-01-02T01:34:29.979Z,100.00
2023-01-02T01:36:59.043Z,100.00
2023-01-02T01:39:28.449Z,100.00
2023-01-02T01:42:00.673Z,100.00
2023-01-02T01:44:50.389Z,100.00
2023-01-02T01:47:25.434Z,100.00
2023-01-02T01:50:05.217Z,100.00
2023-01-02T01:52:40.094Z,100.00
2023-01-02T01:55:12.888Z,100.00
2023-01-02T01:57:47.685Z,100.00
2023-01-02T02:00:17.555Z,100.00
2023-01-02T02:02:49.693Z,100.00
2023-01-02T02:05:22.939Z,100.00
2023-01-02T02:08:00.717Z,100.00
2023-01-02T02:10:29.810Z,100.00
2023-01-02T02:13:00.300Z,100.00
2023-01-02T02:15:39.910Z,100.00
2023-01-02T02:18:19.701Z,100.00
2023-01-02T02:20:56.682Z,100.00
2023-01-02T02:24:12.977Z,100.00
2023-01-02T02:27:17.498Z,100.00
2023-01-02T02:30:04.402Z,100.00
2023-01-02T02:32:52.901Z,100.00
2023-01-02T02:35:33.705Z,100.00
2023-01-02T02:38:08.257Z,100.00
2023-01-02T02:40:50.463Z,100.00
2023-01-02T02:43:30.747Z,100.00
2023-01-02T02:46:07.589Z,100.00
2023-01-02T02:48:48.639Z,100.00
2023-01-02T02:51:22.625Z,100.00
2023-01-02T02:53:57.416Z,100.00
2023-01-02T02:56:29.217Z,100.00
2023-01-02T02:58:59.135Z,100.00
2023-01-02T03:01:32.280Z,100.00
2023-01-02T03:04:11.257Z,100.00
2023-01-02T03:06:56.120Z,100.00
2023-01-02T03:09:44.367Z,100.00
2023-01-02T03:12:24.597Z,100.00
2023-01-02T03:15:04.287Z,100.00
2023-01-02T03:17:39.863Z,100.00
2023-01-02T03:20:14.693Z,100.00
2023-01-02T03:22:48.374Z,100.00
2023-01-02T03:25:20.832Z,100.00
2023-01-02T03:27:52.352Z,100.00
2023-01-02T03:30:23.987Z,100.00
2023-01-02T03:32:58.320Z,100.00
2023-01-02T03:35:34.059Z,100.00
2023-01-02T03:38:07.037Z,100.00
2023-01-02T03:40:41.673Z,100.00
2023-01-02T03:43:15.714Z,100.00
2023-01-02T03:45:49.964Z,100.00
2023-01-02T03:48:29.148Z,100.00
2023-01-02T03:51:03.144Z,100.00
2023-01-02T03:53:35.543Z,100.00
2023-01-02T03:56:17.652Z,100.00
2023-01-02T03:58:52.298Z,100.00
2023-01-02T04:01:33.981Z,100.00
2023-01-02T04:04:11.869Z,100.00
2023-01-02T04:06:49.467Z,100.00
2023-01-02T04:09:22.699Z,100.00
2023-01-02T04:11:56.947Z,100.00
2023-01-02T04:14:32.165Z,100.00
2023-01-02T04:17:04.746Z,100.00
2023-01-02T04:19:36.878Z,100.00
2023-01-02T04:22:11.691Z,100.00
2023-01-02T04:24:47.740Z,100.00
2023-01-02T04:27:22.335Z,100.00
2023-01-02T04:29:51.756Z,100.00
2023-01-02T04:32:24.717Z,100.00
2023-01-02T04:34:55.730Z,100.00
2023-01-02T04:37:31.743Z,100.00
2023-01-02T04:40:05.470Z,100.00
2023-01-02T04:42:34.841Z,100.00
2023-01-02T04:45:04.037Z,100.00
2023-01-02T04:47:36.242Z,100.00
2023-01-02T04:50:05.911Z,100.00
2023-01-02T04:52:37.305Z,100.00
2023-01-02T04:55:08.506Z,100.00
2023-01-02T04:57:38.033Z,100.00
2023-01-02T05:00:09.553Z,100.00
2023-01-02T05:02:40.405Z,100.00
2023-01-02T05:05:10.897Z,100.00
2023-01-02T05:07:41.435Z,100.00
2023-01-02T05:10:11.095Z,100.00
2023-01-02T05:12:40.591Z,100.00
2023-01-02T05:15:11.655Z,100.00
2023-01-02T05:17:41.948Z,100.00
2023-01-02T05:20:13.505Z,100.00
2023-01-02T05:23:05.260Z,100.00
2023-01-02T05:25:35.877Z,100.00
2023-01-02T05:28:05.473Z,100.00
2023-01-02T05:30:37.846Z,100.00
2023-01-02T05:33:07.052Z,100.00
2023-01-02T05:35:36.512Z,100.00
2023-01-02T05:38:06.989Z,100.00
2023-01-02T05:40:36.132Z,100.00
2023-01-02T05:43:05.274Z,100.00
2023-01-02T05:45:34.797Z,100.00
2023-01-02T05:48:04.041Z,100.00
2023-01-02T05:50:33.630Z,100.00
2023-01-02T05:53:03.072Z,100.00
2023-01-02T05:55:44.510Z,100.00
2023-01-02T05:58:18.198Z,100.00
2023-01-02T06:00:47.192Z,100.00
2023-01-02T06:03:16.437Z,100.00
2023-01-02T06:05:45.598Z,100.00
2023-01-02T06:08:14.729Z,100.00
2023-01-02T06:10:52.119Z,100.00
2023-01-02T06:13:21.357Z,100.00
2023-01-02T06:15:50.621Z,100.00
2023-01-02T06:18:19.967Z,100.00
2023-01-02T06:20:49.027Z,100.00
2023-01-02T06:23:18.270Z,100.00
2023-01-02T06:25:47.563Z,100.00
2023-01-02T06:28:18.102Z,100.00
2023-01-02T06:30:47.479Z,100.00
2023-01-02T06:33:16.573Z,100.00
2023-01-02T06:35:46.186Z,100.00
2023-01-02T06:38:15.588Z,100.00
2023-01-02T06:40:54.275Z,100.00
2023-01-02T06:43:25.560Z,100.00
2023-01-02T06:45:55.064Z,100.00
2023-01-02T06:48:24.087Z,100.00
2023-01-02T06:50:53.342Z,100.00
2023-01-02T06:53:22.742Z,100.00
2023-01-02T06:55:54.975Z,100.00
2023-01-02T06:58:26.534Z,100.00
2023-01-02T07:00:55.991Z,100.00
2023-01-02T07:03:25.218Z,100.00
2023-01-02T07:05:54.596Z,100.00
2023-01-02T07:08:23.985Z,100.00
2023-01-02T07:10:53.344Z,100.00
2023-01-02T07:13:22.780Z,100.00
2023-01-02T07:15:53.305Z,100.00
2023-01-02T07:18:22.538Z,100.00
2023-01-02T07:20:55.324Z,100.00
2023-01-02T07:23:24.618Z,100.00
2023-01-02T07:25:55.640Z,100.00
2023-01-02T07:28:25.431Z,100.00
2023-01-02T07:30:58.514Z,100.00
2023-01-02T07:33:29.859Z,100.00
2023-01-02T07:35:59.677Z,100.00
2023-01-02T07:38:29.351Z,100.00
2023-01-02T07:40:58.877Z,100.00
2023-01-02T07:43:28.399Z,100.00
2023-01-02T07:46:05.037Z,100.00
2023-01-02T07:48:34.429Z,100.00
2023-01-02T07:51:04.432Z,100.00
2023-01-02T07:53:34.027Z,100.00
2023-01-02T07:56:04.450Z,100.00
2023-01-02T07:58:34.058Z,100.00
2023-01-02T08:01:08.964Z,100.00
2023-01-02T08:03:38.817Z,100.00
2023-01-02T08:06:09.895Z,100.00
2023-01-02T08:08:39.230Z,100.00
2023-01-02T08:11:09.582Z,100.00
2023-01-02T08:13:39.877Z,100.00
2023-01-02T08:16:13.639Z,100.00
2023-01-02T08:18:43.343Z,100.00
2023-01-02T08:21:12.950Z,100.00
2023-01-02T08:23:43.488Z,100.00
2023-01-02T08:26:13.344Z,100.00
2023-01-02T08:28:43.371Z,100.00
2023-01-02T08:31:15.823Z,100.00
2023-01-02T08:33:44.903Z,100.00
2023-01-02T08:36:19.245Z,100.00
2023-01-02T08:38:51.380Z,100.00
2023-01-02T08:41:32.343Z,100.00
2023-01-02T08:44:02.081Z,100.00
2023-01-02T08:46:40.140Z,100.00
2023-01-02T08:49:12.436Z,100.00
2023-01-02T08:51:42.016Z,100.00
2023-01-02T08:54:11.518Z,100.00
2023-01-02T08:56:41.554Z,100.00
2023-01-02T08:59:15.621Z,100.00
2023-01-02T09:01:46.368Z,100.00
2023-01-02T09:04:15.551Z,100.00
2023-01-02T09:06:45.358Z,100.00
2023-01-02T09:09:18.427Z,100.00
2023-01-02T09:11:50.807Z,100.00
2023-01-02T09:14:22.132Z,100.00
2023-01-02T09:16:53.666Z,100.00
2023-01-02T09:19:22.765Z,100.00
2023-01-02T09:21:52.325Z,100.00
2023-01-02T09:24:22.772Z,100.00
2023-01-02T09:26:52.171Z,100.00
2023-01-02T09:29:21.895Z,100.00
2023-01-02T09:31:52.830Z,100.00
2023-01-02T09:34:22.132Z,100.00
2023-01-02T09:36:51.350Z,100.00
2023-01-02T09:39:20.677Z,100.00
2023-01-02T09:41:53.368Z,100.00
2023-01-02T09:44:27.912Z,100.00
2023-01-02T09:47:02.407Z,100.00
2023-01-02T09:49:34.351Z,100.00
2023-01-02T09:52:06.533Z,100.00
2023-01-02T09:54:35.796Z,100.00
2023-01-02T09:57:20.780Z,100.00
2023-01-02T09:59:57.593Z,100.00
2023-01-02T10:02:40.933Z,100.00
2023-01-02T10:05:27.365Z,100.00
2023-01-02T10:08:03.081Z,100.00
2023-01-02T10:10:38.410Z,100.00
2023-01-02T10:13:18.299Z,100.00
2023-01-02T10:15:50.498Z,100.00
2023-01-02T10:18:25.944Z,100.00
2023-01-02T10:20:59.448Z,100.00
2023-01-02T10:23:34.812Z,100.00
2023-01-02T10:26:07.177Z,100.00
2023-01-02T10:28:45.410Z,100.00
2023-01-02T10:31:21.240Z,100.00
2023-01-02T10:33:56.900Z,100.00
2023-01-02T10:36:28.569Z,100.00
2023-01-02T10:39:00.953Z,100.00
2023-01-02T10:41:32.280Z,100.00
2023-01-02T10:44:04.169Z,100.00
2023-01-02T10:46:36.891Z,100.00
2023-01-02T10:49:10.266Z,100.00
2023-01-02T10:51:43.347Z,100.00
2023-01-02T10:54:12.923Z,100.00
2023-01-02T10:56:42.632Z,100.00
2023-01-02T10:59:22.031Z,100.00
2023-01-02T11:01:53.423Z,100.00
2023-01-02T11:04:26.113Z,100.00
2023-01-02T11:07:01.284Z,100.00
2023-01-02T11:09:32.136Z,100.00
2023-01-02T11:12:10.703Z,100.00
2023-01-02T11:14:40.669Z,80.93
2023-01-02T11:17:14.809Z,80.47
2023-01-02T11:19:47.897Z,73.92
2023-01-02T11:22:20.217Z,81.56
2023-01-02T11:25:00.455Z,71.42
2023-01-02T11:27:32.832Z,61.94
2023-01-02T11:30:03.104Z,55.70
2023-01-02T11:32:39.769Z,60.19
2023-01-02T11:35:35.430Z,67.17
2023-01-02T11:38:04.607Z,57.35
2023-01-02T11:40:34.149Z,59.36
2023-01-02T11:43:26.240Z,56.33
2023-01-02T11:45:56.260Z,47.59
2023-01-02T11:48:26.330Z,47.30
2023-01-02T11:50:58.180Z,45.12
2023-01-02T11:53:34.368Z,45.84
2023-01-02T11:56:10.137Z,44.23
2023-01-02T11:58:49.635Z,44.67
2023-01-02T12:01:23.548Z,47.78
2023-01-02T12:03:52.950Z,46.61
2023-01-02T12:06:26.941Z,44.63
2023-01-02T12:09:06.545Z,45.28
2023-01-02T12:11:46.367Z,49.10
2023-01-02T12:14:18.154Z,50.29
2023-01-02T12:16:57.983Z,50.56
2023-01-02T12:19:45.027Z,51.32
2023-01-02T12:22:39.379Z,51.00
2023-01-02T12:25:36.534Z,49.36
2023-01-02T12:28:17.133Z,49.75
2023-01-02T12:30:51.927Z,49.09
2023-01-02T12:33:37.715Z,48.83
2023-01-02T12:36:23.957Z,49.98
2023-01-02T12:39:18.227Z,51.26
2023-01-02T12:42:01.912Z,70.51
2023-01-02T12:44:47.306Z,87.55
2023-01-02T12:47:30.453Z,91.93
2023-01-02T12:50:49.013Z,98.75
2023-01-02T12:53:38.000Z,98.92
2023-01-02T12:56:14.149Z,100.00
2023-01-02T12:59:01.265Z,100.00
2023-01-02T13:01:38.325Z,100.00
2023-01-02T13:04:16.533Z,100.00
2023-01-02T13:06:52.179Z,100.00
2023-01-02T13:09:28.857Z,100.00
2023-01-02T13:12:06.572Z,100.00
2023-01-02T13:14:41.127Z,100.00
2023-01-02T13:17:33.951Z,100.00
2023-01-02T13:20:08.273Z,100.00
2023-01-02T13:22:48.874Z,100.00
2023-01-02T13:25:21.908Z,100.00
2023-01-02T13:27:53.991Z,100.00
2023-01-02T13:31:05.436Z,100.00
2023-01-02T13:33:42.175Z,100.00
2023-01-02T13:36:23.826Z,100.00
2023-01-02T13:38:56.076Z,100.00
2023-01-02T13:41:26.756Z,100.00
2023-01-02T13:44:00.203Z,100.00
2023-01-02T13:47:01.980Z,100.00
2023-01-02T13:49:22.498Z,100.00
2023-01-02T13:52:00.401Z,100.00
2023-01-02T13:54:37.383Z,100.00
2023-01-02T13:57:32.550Z,100.00
2023-01-02T14:00:05.945Z,100.00
2023-01-02T14:02:41.602Z,100.00
2023-01-02T14:05:48.197Z,100.00
2023-01-02T14:08:25.441Z,100.00
2023-01-02T14:10:57.909Z,100.00
2023-01-02T14:13:36.760Z,100.00
2023-01-02T14:16:41.612Z,100.00
2023-01-02T14:19:24.805Z,100.00
2023-01-02T14:22:04.069Z,100.00
2023-01-02T14:24:37.288Z,100.00
2023-01-02T14:27:08.343Z,100.00
2023-01-02T14:29:48.984Z,100.00
2023-01-02T14:32:25.446Z,100.00
2023-01-02T14:34:58.676Z,100.00
2023-01-02T14:37:34.272Z,100.00
2023-01-02T14:40:37.362Z,100.00
2023-01-02T14:43:30.291Z,100.00
2023-01-02T14:46:07.826Z,100.00
2023-01-02T14:48:45.366Z,100.00
2023-01-02T14:52:43.057Z,100.00
2023-01-02T14:54:47.022Z,100.00
2023-01-02T14:57:28.096Z,100.00
2023-01-02T14:59:59.493Z,100.00
2023-01-02T15:02:35.843Z,100.00
2023-01-02T15:05:10.204Z,100.00
2023-01-02T15:07:43.545Z,100.00
2023-01-02T15:10:15.979Z,100.00
2023-01-02T15:13:04.249Z,100.00
2023-01-02T15:15:39.748Z,100.00
2023-01-02T15:18:18.216Z,100.00
2023-01-02T15:20:50.648Z,100.00
2023-01-02T15:23:23.745Z,100.00
2023-01-02T15:26:33.262Z,100.00
2023-01-02T15:28:44.191Z,100.00
2023-01-02T15:31:15.597Z,100.00
2023-01-02T15:33:52.204Z,100.00
2023-01-02T15:36:36.040Z,100.00
2023-01-02T15:39:17.202Z,100.00
2023-01-02T15:41:49.345Z,100.00
2023-01-02T15:44:40.911Z,100.00
2023-01-02T15:47:14.089Z,100.00
2023-01-02T15:49:46.060Z,100.00
2023-01-02T15:52:21.758Z,100.00
2023-01-02T15:54:54.721Z,100.00
2023-01-02T15:57:27.893Z,100.00
2023-01-02T15:59:57.331Z,100.00
2023-01-02T16:02:35.671Z,100.00
2023-01-02T16:05:14.143Z,100.00
2023-01-02T16:07:49.677Z,100.00
2023-01-02T16:10:23.460Z,100.00
2023-01-02T16:12:55.347Z,100.00
2023-01-02T16:15:29.670Z,100.00
2023-01-02T16:17:59.379Z,100.00
2023-01-02T16:20:30.408Z,100.00
2023-01-02T16:23:04.278Z,100.00
2023-01-02T16:25:36.994Z,100.00
2023-01-02T16:28:35.354Z,100.00
2023-01-02T16:31:09.687Z,100.00
2023-01-02T16:33:40.339Z,100.00
2023-01-02T16:36:12.700Z,100.00
2023-01-02T16:38:53.019Z,100.00
2023-01-02T16:42:13.991Z,100.00
2023-01-02T16:44:43.349Z,100.00
2023-01-02T16:47:12.926Z,100.00
2023-01-02T16:49:42.370Z,100.00
2023-01-02T16:52:11.535Z,100.00
2023-01-02T16:54:40.733Z,100.00
2023-01-02T16:57:30.785Z,100.00
2023-01-02T17:00:00.442Z,100.00
2023-01-02T17:02:29.910Z,100.00
2023-01-02T17:04:59.189Z,100.00
2023-01-02T17:07:28.748Z,100.00
2023-01-02T17:09:58.022Z,100.00
2023-01-02T17:12:27.319Z,100.00
2023-01-02T17:14:58.032Z,100.00
2023-01-02T17:17:27.427Z,100.00
2023-01-02T17:19:56.759Z,100.00
2023-01-02T17:22:26.365Z,100.00
2023-01-02T17:24:56.531Z,100.00
2023-01-02T17:27:25.870Z,100.00
2023-01-02T17:29:55.289Z,100.00
2023-01-02T17:32:25.987Z,100.00
2023-01-02T17:35:33.799Z,100.00
2023-01-02T17:38:18.713Z,100.00
2023-01-02T17:40:49.487Z,100.00
2023-01-02T17:43:21.063Z,100.00
2023-01-02T17:45:50.533Z,100.00
2023-01-02T17:48:24.604Z,100.00
2023-01-02T17:50:55.154Z,100.00
2023-01-02T17:53:24.329Z,100.00
2023-01-02T17:56:20.525Z,100.00
2023-01-02T17:58:45.473Z,100.00
2023-01-02T18:01:16.491Z,100.00
2023-01-02T18:03:48.194Z,100.00
2023-01-02T18:06:18.453Z,100.00
2023-01-02T18:08:47.873Z,100.00
2023-01-02T18:11:18.533Z,100.00
2023-01-02T18:13:49.763Z,100.00
2023-01-02T18:16:22.319Z,100.00
2023-01-02T18:18:53.659Z,100.00
2023-01-02T18:21:25.810Z,100.00
2023-01-02T18:24:00.456Z,100.00
2023-01-02T18:26:31.863Z,100.00
2023-01-02T18:29:09.720Z,100.00
2023-01-02T18:31:41.541Z,100.00
2023-01-02T18:34:46.374Z,100.00
2023-01-02T18:37:22.236Z,100.00
2023-01-02T18:39:52.248Z,100.00
2023-01-02T18:42:23.428Z,100.00
2023-01-02T18:44:53.708Z,100.00
2023-01-02T18:47:30.241Z,100.00
2023-01-02T18:50:24.083Z,100.00
2023-01-02T18:52:54.069Z,100.00
2023-01-02T18:55:26.210Z,100.00
2023-01-02T18:57:59.793Z,100.00
2023-01-02T19:00:50.289Z,100.00
2023-01-02T19:03:26.245Z,100.00
2023-01-02T19:05:59.027Z,100.00
2023-01-02T19:08:36.796Z,100.00
2023-01-02T19:11:32.086Z,100.00
2023-01-02T19:14:17.177Z,100.00
2023-01-02T19:16:51.597Z,100.00
2023-01-02T19:19:28.076Z,100.00
2023-01-02T19:22:04.091Z,100.00
2023-01-02T19:24:39.602Z,100.00
2023-01-02T19:27:27.463Z,100.00
2023-01-02T19:30:01.495Z,100.00
2023-01-02T19:32:35.832Z,100.00
2023-01-02T19:35:38.426Z,100.00
2023-01-02T19:38:23.696Z,100.00
2023-01-02T19:40:53.507Z,100.00
2023-01-02T19:43:23.675Z,100.00
2023-01-02T19:45:54.522Z,100.00
2023-01-02T19:48:24.015Z,100.00
2023-01-02T19:50:53.393Z,100.00
2023-01-02T19:53:23.859Z,100.00
2023-01-02T19:55:53.178Z,100.00
2023-01-02T19:58:23.514Z,100.00
2023-01-02T20:00:53.962Z,100.00
2023-01-02T20:03:23.761Z,100.00
2023-01-02T20:05:53.070Z,100.00
2023-01-02T20:08:24.045Z,100.00
2023-01-02T20:10:53.479Z,100.00
2023-01-02T20:13:23.264Z,100.00
2023-01-02T20:15:53.017Z,100.00
2023-01-02T20:18:22.505Z,100.00
2023-01-02T20:20:51.935Z,100.00
2023-01-02T20:23:21.341Z,100.00
2023-01-02T20:25:51.951Z,100.00
2023-01-02T20:28:21.782Z,100.00
2023-01-02T20:30:51.593Z,100.00
2023-01-02T20:33:20.895Z,100.00
2023-01-02T20:35:50.339Z,100.00
2023-01-02T20:38:19.862Z,100.00
2023-01-02T20:40:49.259Z,100.00
2023-01-02T20:43:19.908Z,100.00
2023-01-02T20:45:49.233Z,100.00
2023-01-02T20:48:18.587Z,100.00
2023-01-02T20:50:48.712Z,100.00
2023-01-02T20:53:18.131Z,100.00
2023-01-02T20:55:47.859Z,100.00
2023-01-02T20:58:17.684Z,100.00
2023-01-02T21:00:49.388Z,100.00
2023-01-02T21:03:19.628Z,100.00
2023-01-02T21:05:49.292Z,100.00
2023-01-02T21:08:18.794Z,100.00
2023-01-02T21:10:48.335Z,100.00
2023-01-02T21:13:17.805Z,100.00
2023-01-02T21:15:51.929Z,100.00
2023-01-02T21:18:23.925Z,100.00
2023-01-02T21:20:55.714Z,100.00
2023-01-02T21:23:26.738Z,100.00
2023-01-02T21:25:56.599Z,100.00
2023-01-02T21:28:26.909Z,100.00
2023-01-02T21:30:58.126Z,100.00
2023-01-02T21:33:31.078Z,100.00
2023-01-02T21:36:02.704Z,100.00
2023-01-02T21:38:32.213Z,100.00
2023-01-02T21:41:21.749Z,100.00
2023-01-02T21:43:51.451Z,100.00
2023-01-02T21:46:22.193Z,100.00
2023-01-02T21:48:51.769Z,100.00
2023-01-02T21:51:21.650Z,100.00
2023-01-02T21:53:51.262Z,100.00
2023-01-02T21:56:20.487Z,100.00
2023-01-02T21:58:49.728Z,100.00
2023-01-02T22:01:19.146Z,100.00
2023-01-02T22:03:49.953Z,100.00
2023-01-02T22:06:19.533Z,100.00
2023-01-02T22:08:48.825Z,100.00
2023-01-02T22:11:35.579Z,100.00
2023-01-02T22:14:06.874Z,100.00
2023-01-02T22:16:36.919Z,100.00
2023-01-02T22:19:07.707Z,100.00
2023-01-02T22:21:37.110Z,100.00
2023-01-02T22:24:07.126Z,100.00
2023-01-02T22:26:36.749Z,100.00
2023-01-02T22:29:06.566Z,100.00
2023-01-02T22:31:36.594Z,100.00
2023-01-02T22:34:08.136Z,100.00
2023-01-02T22:36:37.620Z,100.00
2023-01-02T22:39:27.974Z,100.00
2023-01-02T22:42:48.939Z,100.00
2023-01-02T22:45:05.503Z,100.00
2023-01-02T22:47:38.440Z,100.00
2023-01-02T22:50:12.312Z,100.00
2023-01-02T22:52:42.084Z,100.00
2023-01-02T22:55:17.529Z,100.00
2023-01-02T22:57:51.529Z,100.00
2023-01-02T23:00:23.483Z,100.00
2023-01-02T23:02:52.958Z,100.00
2023-01-02T23:05:23.888Z,100.00
2023-01-02T23:07:53.277Z,100.00
2023-01-02T23:10:22.818Z,100.00
2023-01-02T23:12:52.249Z,100.00
2023-01-02T23:15:21.871Z,100.00
2023-01-02T23:18:08.817Z,100.00
2023-01-02T23:20:39.578Z,100.00
2023-01-02T23:23:08.890Z,100.00
2023-01-02T23:25:41.718Z,100.00
2023-01-02T23:28:16.592Z,100.00
2023-01-02T23:30:55.059Z,100.00
2023-01-02T23:33:24.816Z,100.00
2023-01-02T23:35:55.629Z,100.00
2023-01-02T23:38:25.130Z,100.00
2023-01-02T23:40:54.120Z,100.00
2023-01-02T23:43:23.544Z,100.00
2023-01-02T23:45:53.199Z,100.00
2023-01-02T23:48:22.950Z,100.00
2023-01-02T23:50:59.471Z,100.00
2023-01-02T23:53:33.937Z,100.00
2023-01-02T23:56:03.392Z,100.00
2023-01-02T23:58:34.640Z,100.00
